sensor_id;sensor_type;location;lat;lon;timestamp;pressure;altitude;pressure_sealevel;temperature;humidity
58385;BME280;44185;47.844;8.966;2023-01-28T00:00:46;96504.22;;;-2.42;100.00
58385;BME280;44185;47.844;8.966;2023-01-28T00:03:12;96505.06;;;-2.42;100.00
58385;BME280;44185;47.844;8.966;2023-01-28T00:05:37;96501.31;;;-2.31;100.00
58385;BME280;44185;47.844;8.966;2023-01-28T00:08:03;96499.44;;;-2.28;100.00
58385;BME280;44185;47.844;8.966;2023-01-28T00:10:28;96491.75;;;-2.31;100.00
58385;BME280;44185;47.844;8.966;2023-01-28T00:12:55;96497.44;;;-2.18;100.00
58385;BME280;44185;47.844;8.966;2023-01-28T00:15:21;96488.34;;;-2.31;100.00
58385;BME280;44185;47.844;8.966;2023-01-28T00:17:46;96478.00;;;-2.33;100.00
58385;BME280;44185;47.844;8.966;2023-01-28T00:20:12;96484.75;;;-2.27;100.00
58385;BME280;44185;47.844;8.966;2023-01-28T00:22:37;96474.56;;;-2.33;100.00
58385;BME280;44185;47.844;8.966;2023-01-28T00:25:03;96479.97;;;-2.41;100.00
58385;BME280;44185;47.844;8.966;2023-01-28T00:27:28;96481.78;;;-2.43;100.00
58385;BME280;44185;47.844;8.966;2023-01-28T00:29:55;96480.88;;;-2.42;100.00
58385;BME280;44185;47.844;8.966;2023-01-28T00:32:21;96475.69;;;-2.42;100.00
58385;BME280;44185;47.844;8.966;2023-01-28T00:34:46;96492.13;;;-2.43;100.00
58385;BME280;44185;47.844;8.966;2023-01-28T00:37:12;96488.81;;;-2.47;100.00
58385;BME280;44185;47.844;8.966;2023-01-28T00:39:37;96484.50;;;-2.48;100.00
58385;BME280;44185;47.844;8.966;2023-01-28T00:42:03;96489.78;;;-2.51;100.00
58385;BME280;44185;47.844;8.966;2023-01-28T00:44:28;96484.56;;;-2.50;100.00
58385;BME280;44185;47.844;8.966;2023-01-28T00:46:55;96488.88;;;-2.50;100.00
58385;BME280;44185;47.844;8.966;2023-01-28T00:49:20;96481.13;;;-2.52;100.00
58385;BME280;44185;47.844;8.966;2023-01-28T00:51:46;96476.88;;;-2.53;100.00
58385;BME280;44185;47.844;8.966;2023-01-28T00:54:12;96480.34;;;-2.54;100.00
58385;BME280;44185;47.844;8.966;2023-01-28T00:56:37;96473.28;;;-2.49;100.00
58385;BME280;44185;47.844;8.966;2023-01-28T00:59:03;96475.13;;;-2.52;100.00
58385;BME280;44185;47.844;8.966;2023-01-28T01:01:28;96470.78;;;-2.52;100.00
58385;BME280;44185;47.844;8.966;2023-01-28T01:03:55;96472.50;;;-2.51;100.00
58385;BME280;44185;47.844;8.966;2023-01-28T01:06:21;96474.19;;;-2.50;100.00
58385;BME280;44185;47.844;8.966;2023-01-28T01:08:46;96475.97;;;-2.52;100.00
58385;BME280;44185;47.844;8.966;2023-01-28T01:11:11;96481.03;;;-2.47;100.00
58385;BME280;44185;47.844;8.966;2023-01-28T01:13:37;96478.44;;;-2.47;100.00
58385;BME280;44185;47.844;8.966;2023-01-28T01:16:04;96484.59;;;-2.51;100.00
58385;BME280;44185;47.844;8.966;2023-01-28T01:18:30;96481.97;;;-2.50;100.00
58385;BME280;44185;47.844;8.966;2023-01-28T01:20:57;96482.63;;;-2.43;100.00
58385;BME280;44185;47.844;8.966;2023-01-28T01:23:23;96481.13;;;-2.50;100.00
58385;BME280;44185;47.844;8.966;2023-01-28T01:25:49;96480.19;;;-2.48;100.00
58385;BME280;44185;47.844;8.966;2023-01-28T01:28:14;96480.09;;;-2.44;100.00
58385;BME280;44185;47.844;8.966;2023-01-28T01:30:39;96483.47;;;-2.42;100.00
58385;BME280;44185;47.844;8.966;2023-01-28T01:33:05;96482.69;;;-2.44;100.00
58385;BME280;44185;47.844;8.966;2023-01-28T01:35:30;96488.81;;;-2.47;100.00
58385;BME280;44185;47.844;8.966;2023-01-28T01:37:57;96486.16;;;-2.46;100.00
58385;BME280;44185;47.844;8.966;2023-01-28T01:40:22;96489.75;;;-2.50;100.00
58385;BME280;44185;47.844;8.966;2023-01-28T01:42:48;96491.25;;;-2.42;100.00
58385;BME280;44185;47.844;8.966;2023-01-28T01:45:14;96495.44;;;-2.38;100.00
58385;BME280;44185;47.844;8.966;2023-01-28T01:47:44;96505.00;;;-2.40;100.00
58385;BME280;44185;47.844;8.966;2023-01-28T01:50:16;96499.06;;;-2.44;100.00
58385;BME280;44185;47.844;8.966;2023-01-28T01:52:46;96497.25;;;-2.40;100.00
58385;BME280;44185;47.844;8.966;2023-01-28T01:55:17;96499.91;;;-2.43;100.00
58385;BME280;44185;47.844;8.966;2023-01-28T01:57:46;96496.53;;;-2.46;100.00
58385;BME280;44185;47.844;8.966;2023-01-28T02:00:15;96504.94;;;-2.39;100.00
58385;BME280;44185;47.844;8.966;2023-01-28T02:02:42;96506.75;;;-2.41;100.00
58385;BME280;44185;47.844;8.966;2023-01-28T02:05:12;96506.91;;;-2.46;100.00
58385;BME280;44185;47.844;8.966;2023-01-28T02:07:38;96505.16;;;-2.45;100.00
58385;BME280;44185;47.844;8.966;2023-01-28T02:10:05;96511.19;;;-2.44;100.00
58385;BME280;44185;47.844;8.966;2023-01-28T02:12:35;96509.34;;;-2.41;100.00
58385;BME280;44185;47.844;8.966;2023-01-28T02:15:04;96509.41;;;-2.42;100.00
58385;BME280;44185;47.844;8.966;2023-01-28T02:17:30;96513.81;;;-2.46;100.00
58385;BME280;44185;47.844;8.966;2023-01-28T02:19:58;96508.59;;;-2.44;100.00
58385;BME280;44185;47.844;8.966;2023-01-28T02:22:50;96508.59;;;-2.44;100.00
58385;BME280;44185;47.844;8.966;2023-01-28T02:25:49;96511.06;;;-2.41;100.00
58385;BME280;44185;47.844;8.966;2023-01-28T02:28:26;96514.53;;;-2.41;100.00
58385;BME280;44185;47.844;8.966;2023-01-28T02:30:59;96506.59;;;-2.36;100.00
58385;BME280;44185;47.844;8.966;2023-01-28T02:33:32;96510.06;;;-2.36;100.00
58385;BME280;44185;47.844;8.966;2023-01-28T02:36:03;96514.50;;;-2.39;100.00
58385;BME280;44185;47.844;8.966;2023-01-28T02:38:38;96510.13;;;-2.39;100.00
58385;BME280;44185;47.844;8.966;2023-01-28T02:41:08;96503.22;;;-2.38;100.00
58385;BME280;44185;47.844;8.966;2023-01-28T02:43:40;96511.75;;;-2.35;100.00
58385;BME280;44185;47.844;8.966;2023-01-28T02:46:14;96513.34;;;-2.30;100.00
58385;BME280;44185;47.844;8.966;2023-01-28T02:48:41;96506.53;;;-2.33;100.00
58385;BME280;44185;47.844;8.966;2023-01-28T02:51:12;96510.84;;;-2.33;100.00
58385;BME280;44185;47.844;8.966;2023-01-28T02:53:45;96507.38;;;-2.32;100.00
58385;BME280;44185;47.844;8.966;2023-01-28T02:56:21;96516.72;;;-2.27;100.00
58385;BME280;44185;47.844;8.966;2023-01-28T02:58:58;96508.16;;;-2.29;100.00
58385;BME280;44185;47.844;8.966;2023-01-28T03:01:28;96514.06;;;-2.25;100.00
58385;BME280;44185;47.844;8.966;2023-01-28T03:04:01;96510.75;;;-2.29;100.00
58385;BME280;44185;47.844;8.966;2023-01-28T03:06:30;96512.41;;;-2.28;100.00
58385;BME280;44185;47.844;8.966;2023-01-28T03:09:00;96515.06;;;-2.29;100.00
58385;BME280;44185;47.844;8.966;2023-01-28T03:11:27;96515.78;;;-2.24;100.00
58385;BME280;44185;47.844;8.966;2023-01-28T03:13:56;96511.69;;;-2.31;100.00
58385;BME280;44185;47.844;8.966;2023-01-28T03:16:21;96513.41;;;-2.32;100.00
58385;BME280;44185;47.844;8.966;2023-01-28T03:18:49;96508.16;;;-2.30;100.00
58385;BME280;44185;47.844;8.966;2023-01-28T03:21:19;96509.13;;;-2.33;100.00
58385;BME280;44185;47.844;8.966;2023-01-28T03:23:53;96515.06;;;-2.29;100.00
58385;BME280;44185;47.844;8.966;2023-01-28T03:26:20;96510.91;;;-2.35;100.00
58385;BME280;44185;47.844;8.966;2023-01-28T03:28:47;96512.47;;;-2.29;100.00
58385;BME280;44185;47.844;8.966;2023-01-28T03:31:16;96522.78;;;-2.28;100.00
58385;BME280;44185;47.844;8.966;2023-01-28T03:33:44;96521.22;;;-2.33;100.00
58385;BME280;44185;47.844;8.966;2023-01-28T03:36:10;96516.03;;;-2.33;100.00
58385;BME280;44185;47.844;8.966;2023-01-28T03:38:36;96511.63;;;-2.30;100.00
58385;BME280;44185;47.844;8.966;2023-01-28T03:41:03;96512.66;;;-2.36;100.00
58385;BME280;44185;47.844;8.966;2023-01-28T03:43:29;96517.75;;;-2.32;100.00
58385;BME280;44185;47.844;8.966;2023-01-28T03:45:55;96515.38;;;-2.40;100.00
58385;BME280;44185;47.844;8.966;2023-01-28T03:48:24;96509.13;;;-2.33;100.00
58385;BME280;44185;47.844;8.966;2023-01-28T03:50:50;96515.91;;;-2.29;100.00
58385;BME280;44185;47.844;8.966;2023-01-28T03:53:17;96513.44;;;-2.33;100.00
58385;BME280;44185;47.844;8.966;2023-01-28T03:55:44;96521.84;;;-2.25;100.00
58385;BME280;44185;47.844;8.966;2023-01-28T03:58:10;96520.19;;;-2.28;100.00
58385;BME280;44185;47.844;8.966;2023-01-28T04:00:36;96517.81;;;-2.34;100.00
58385;BME280;44185;47.844;8.966;2023-01-28T04:03:01;96524.72;;;-2.35;100.00
58385;BME280;44185;47.844;8.966;2023-01-28T04:05:29;96528.25;;;-2.37;100.00
58385;BME280;44185;47.844;8.966;2023-01-28T04:07:55;96523.16;;;-2.40;100.00
58385;BME280;44185;47.844;8.966;2023-01-28T04:10:21;96523.94;;;-2.37;100.00
58385;BME280;44185;47.844;8.966;2023-01-28T04:12:46;96524.97;;;-2.44;100.00
58385;BME280;44185;47.844;8.966;2023-01-28T04:15:12;96518.78;;;-2.38;100.00
58385;BME280;44185;47.844;8.966;2023-01-28T04:17:38;96529.19;;;-2.40;100.00
58385;BME280;44185;47.844;8.966;2023-01-28T04:20:04;96524.88;;;-2.39;100.00
58385;BME280;44185;47.844;8.966;2023-01-28T04:22:31;96531.00;;;-2.42;100.00
58385;BME280;44185;47.844;8.966;2023-01-28T04:24:56;96538.00;;;-2.46;100.00
58385;BME280;44185;47.844;8.966;2023-01-28T04:27:21;96537.00;;;-2.41;100.00
58385;BME280;44185;47.844;8.966;2023-01-28T04:29:47;96546.44;;;-2.39;100.00
58385;BME280;44185;47.844;8.966;2023-01-28T04:32:12;96538.75;;;-2.42;100.00
58385;BME280;44185;47.844;8.966;2023-01-28T04:34:38;96542.16;;;-2.40;100.00
58385;BME280;44185;47.844;8.966;2023-01-28T04:37:03;96543.81;;;-2.37;100.00
58385;BME280;44185;47.844;8.966;2023-01-28T04:39:30;96545.59;;;-2.39;100.00
58385;BME280;44185;47.844;8.966;2023-01-28T04:41:55;96544.59;;;-2.35;100.00
58385;BME280;44185;47.844;8.966;2023-01-28T04:44:21;96543.91;;;-2.40;100.00
58385;BME280;44185;47.844;8.966;2023-01-28T04:46:47;96543.09;;;-2.42;100.00
58385;BME280;44185;47.844;8.966;2023-01-28T04:49:12;96537.19;;;-2.48;100.00
58385;BME280;44185;47.844;8.966;2023-01-28T04:51:38;96541.44;;;-2.45;100.00
58385;BME280;44185;47.844;8.966;2023-01-28T04:54:03;96540.72;;;-2.50;100.00
58385;BME280;44185;47.844;8.966;2023-01-28T04:56:30;96539.88;;;-2.51;100.00
58385;BME280;44185;47.844;8.966;2023-01-28T04:58:55;96551.03;;;-2.49;100.00
58385;BME280;44185;47.844;8.966;2023-01-28T05:01:21;96557.94;;;-2.49;100.00
58385;BME280;44185;47.844;8.966;2023-01-28T05:03:46;96553.75;;;-2.53;100.00
58385;BME280;44185;47.844;8.966;2023-01-28T05:06:12;96557.22;;;-2.54;100.00
58385;BME280;44185;47.844;8.966;2023-01-28T05:08:38;96564.06;;;-2.50;100.00
58385;BME280;44185;47.844;8.966;2023-01-28T05:11:04;96564.06;;;-2.52;100.00
58385;BME280;44185;47.844;8.966;2023-01-28T05:13:30;96568.47;;;-2.54;100.00
58385;BME280;44185;47.844;8.966;2023-01-28T05:15:56;96565.84;;;-2.52;100.00
58385;BME280;44185;47.844;8.966;2023-01-28T05:18:21;96565.00;;;-2.53;100.00
58385;BME280;44185;47.844;8.966;2023-01-28T05:20:47;96565.06;;;-2.56;100.00
58385;BME280;44185;47.844;8.966;2023-01-28T05:23:13;96570.25;;;-2.56;100.00
58385;BME280;44185;47.844;8.966;2023-01-28T05:25:38;96570.19;;;-2.54;100.00
58385;BME280;44185;47.844;8.966;2023-01-28T05:28:04;96572.84;;;-2.56;100.00
58385;BME280;44185;47.844;8.966;2023-01-28T05:30:30;96567.59;;;-2.54;100.00
58385;BME280;44185;47.844;8.966;2023-01-28T05:32:56;96578.06;;;-2.58;100.00
58385;BME280;44185;47.844;8.966;2023-01-28T05:35:22;96578.81;;;-2.54;100.00
58385;BME280;44185;47.844;8.966;2023-01-28T05:37:47;96577.97;;;-2.54;100.00
58385;BME280;44185;47.844;8.966;2023-01-28T05:40:13;96588.31;;;-2.53;100.00
58385;BME280;44185;47.844;8.966;2023-01-28T05:42:39;96582.19;;;-2.50;100.00
58385;BME280;44185;47.844;8.966;2023-01-28T05:45:05;96577.88;;;-2.51;100.00
58385;BME280;44185;47.844;8.966;2023-01-28T05:47:33;96579.69;;;-2.53;100.00
58385;BME280;44185;47.844;8.966;2023-01-28T05:49:59;96579.53;;;-2.49;100.00
58385;BME280;44185;47.844;8.966;2023-01-28T05:52:24;96577.03;;;-2.52;100.00
58385;BME280;44185;47.844;8.966;2023-01-28T05:54:49;96577.00;;;-2.50;100.00
58385;BME280;44185;47.844;8.966;2023-01-28T05:57:15;96583.06;;;-2.50;100.00
58385;BME280;44185;47.844;8.966;2023-01-28T05:59:40;96590.00;;;-2.52;100.00
58385;BME280;44185;47.844;8.966;2023-01-28T06:02:06;96586.56;;;-2.52;100.00
58385;BME280;44185;47.844;8.966;2023-01-28T06:04:33;96590.84;;;-2.51;100.00
58385;BME280;44185;47.844;8.966;2023-01-28T06:06:58;96592.59;;;-2.52;100.00
58385;BME280;44185;47.844;8.966;2023-01-28T06:09:23;96596.88;;;-2.51;100.00
58385;BME280;44185;47.844;8.966;2023-01-28T06:11:49;96584.78;;;-2.50;100.00
58385;BME280;44185;47.844;8.966;2023-01-28T06:14:14;96586.53;;;-2.51;100.00
58385;BME280;44185;47.844;8.966;2023-01-28T06:16:40;96594.25;;;-2.49;100.00
58385;BME280;44185;47.844;8.966;2023-01-28T06:19:05;96585.63;;;-2.50;100.00
58385;BME280;44185;47.844;8.966;2023-01-28T06:21:32;96585.63;;;-2.50;100.00
58385;BME280;44185;47.844;8.966;2023-01-28T06:23:57;96589.03;;;-2.48;100.00
58385;BME280;44185;47.844;8.966;2023-01-28T06:26:23;96589.03;;;-2.48;100.00
58385;BME280;44185;47.844;8.966;2023-01-28T06:28:48;96594.16;;;-2.46;100.00
58385;BME280;44185;47.844;8.966;2023-01-28T06:31:14;96592.47;;;-2.47;100.00
58385;BME280;44185;47.844;8.966;2023-01-28T06:33:39;96601.06;;;-2.45;100.00
58385;BME280;44185;47.844;8.966;2023-01-28T06:36:06;96607.97;;;-2.46;100.00
58385;BME280;44185;47.844;8.966;2023-01-28T06:38:32;96614.00;;;-2.45;100.00
58385;BME280;44185;47.844;8.966;2023-01-28T06:40:58;96614.09;;;-2.48;100.00
58385;BME280;44185;47.844;8.966;2023-01-28T06:43:24;96618.22;;;-2.41;100.00
58385;BME280;44185;47.844;8.966;2023-01-28T06:45:49;96620.66;;;-2.36;100.00
58385;BME280;44185;47.844;8.966;2023-01-28T06:48:14;96626.75;;;-2.37;100.00
58385;BME280;44185;47.844;8.966;2023-01-28T06:50:40;96620.66;;;-2.36;100.00
58385;BME280;44185;47.844;8.966;2023-01-28T06:53:05;96628.56;;;-2.39;100.00
58385;BME280;44185;47.844;8.966;2023-01-28T06:55:32;96631.16;;;-2.39;100.00
58385;BME280;44185;47.844;8.966;2023-01-28T06:57:57;96625.13;;;-2.41;100.00
58385;BME280;44185;47.844;8.966;2023-01-28T07:00:23;96621.66;;;-2.40;100.00
58385;BME280;44185;47.844;8.966;2023-01-28T07:02:48;96618.28;;;-2.44;100.00
58385;BME280;44185;47.844;8.966;2023-01-28T07:05:14;96620.06;;;-2.44;100.00
58385;BME280;44185;47.844;8.966;2023-01-28T07:07:39;96628.63;;;-2.42;100.00
58385;BME280;44185;47.844;8.966;2023-01-28T07:10:06;96627.78;;;-2.43;100.00
58385;BME280;44185;47.844;8.966;2023-01-28T07:12:33;96631.22;;;-2.42;100.00
58385;BME280;44185;47.844;8.966;2023-01-28T07:14:58;96638.06;;;-2.40;100.00
58385;BME280;44185;47.844;8.966;2023-01-28T07:17:24;96631.91;;;-2.36;100.00
58385;BME280;44185;47.844;8.966;2023-01-28T07:19:49;96636.34;;;-2.39;100.00
58385;BME280;44185;47.844;8.966;2023-01-28T07:22:15;96637.06;;;-2.34;100.00
58385;BME280;44185;47.844;8.966;2023-01-28T07:24:40;96643.81;;;-2.28;100.00
58385;BME280;44185;47.844;8.966;2023-01-28T07:27:05;96645.50;;;-2.27;100.00
58385;BME280;44185;47.844;8.966;2023-01-28T07:29:32;96648.06;;;-2.26;100.00
58385;BME280;44185;47.844;8.966;2023-01-28T07:31:58;96650.59;;;-2.24;100.00
58385;BME280;44185;47.844;8.966;2023-01-28T07:34:23;96664.44;;;-2.24;100.00
58385;BME280;44185;47.844;8.966;2023-01-28T07:36:49;96654.19;;;-2.28;100.00
58385;BME280;44185;47.844;8.966;2023-01-28T07:39:14;96656.78;;;-2.28;100.00
58385;BME280;44185;47.844;8.966;2023-01-28T07:41:39;96659.97;;;-2.18;100.00
58385;BME280;44185;47.844;8.966;2023-01-28T07:44:05;96665.16;;;-2.18;100.00
58385;BME280;44185;47.844;8.966;2023-01-28T07:46:32;96668.47;;;-2.15;100.00
58385;BME280;44185;47.844;8.966;2023-01-28T07:48:57;96664.16;;;-2.14;100.00
58385;BME280;44185;47.844;8.966;2023-01-28T07:51:23;96672.72;;;-2.12;100.00
58385;BME280;44185;47.844;8.966;2023-01-28T07:53:48;96673.66;;;-2.13;100.00
58385;BME280;44185;47.844;8.966;2023-01-28T07:56:14;96676.16;;;-2.10;100.00
58385;BME280;44185;47.844;8.966;2023-01-28T07:58:39;96677.91;;;-2.12;100.00
58385;BME280;44185;47.844;8.966;2023-01-28T08:01:05;96682.22;;;-2.11;100.00
58385;BME280;44185;47.844;8.966;2023-01-28T08:03:31;96686.56;;;-2.12;100.00
58385;BME280;44185;47.844;8.966;2023-01-28T08:05:57;96687.34;;;-2.09;100.00
58385;BME280;44185;47.844;8.966;2023-01-28T08:08:24;96685.69;;;-2.12;100.00
58385;BME280;44185;47.844;8.966;2023-01-28T08:10:50;96692.53;;;-2.08;100.00
58385;BME280;44185;47.844;8.966;2023-01-28T08:13:16;96699.66;;;-2.16;100.00
58385;BME280;44185;47.844;8.966;2023-01-28T08:15:43;96706.28;;;-2.06;100.00
58385;BME280;44185;47.844;8.966;2023-01-28T08:18:10;96708.09;;;-2.08;100.00
58385;BME280;44185;47.844;8.966;2023-01-28T08:20:38;96706.59;;;-2.17;100.00
58385;BME280;44185;47.844;8.966;2023-01-28T08:23:06;96706.22;;;-2.03;100.00
58385;BME280;44185;47.844;8.966;2023-01-28T08:25:33;96703.56;;;-2.01;100.00
58385;BME280;44185;47.844;8.966;2023-01-28T08:27:59;96713.06;;;-2.02;100.00
58385;BME280;44185;47.844;8.966;2023-01-28T08:30:24;96707.78;;;-1.97;100.00
58385;BME280;44185;47.844;8.966;2023-01-28T08:32:50;96715.22;;;-1.84;100.00
58385;BME280;44185;47.844;8.966;2023-01-28T08:35:15;96715.13;;;-1.81;100.00
58385;BME280;44185;47.844;8.966;2023-01-28T08:37:42;96718.16;;;-1.65;100.00
58385;BME280;44185;47.844;8.966;2023-01-28T08:40:09;96716.19;;;-1.58;100.00
58385;BME280;44185;47.844;8.966;2023-01-28T08:42:34;96720.91;;;-1.41;100.00
58385;BME280;44185;47.844;8.966;2023-01-28T08:45:00;96731.31;;;-1.42;100.00
58385;BME280;44185;47.844;8.966;2023-01-28T08:47:25;96719.59;;;-1.26;100.00
58385;BME280;44185;47.844;8.966;2023-01-28T08:49:50;96719.28;;;-1.16;100.00
58385;BME280;44185;47.844;8.966;2023-01-28T08:52:16;96729.06;;;-1.25;100.00
58385;BME280;44185;47.844;8.966;2023-01-28T08:54:43;96728.13;;;-1.22;100.00
58385;BME280;44185;47.844;8.966;2023-01-28T08:57:08;96735.25;;;-1.29;100.00
58385;BME280;44185;47.844;8.966;2023-01-28T08:59:34;96728.56;;;-1.36;100.00
58385;BME280;44185;47.844;8.966;2023-01-28T09:01:59;96732.31;;;-1.47;100.00
58385;BME280;44185;47.844;8.966;2023-01-28T09:04:25;96736.56;;;-1.44;100.00
58385;BME280;44185;47.844;8.966;2023-01-28T09:06:50;96738.09;;;-1.37;100.00
58385;BME280;44185;47.844;8.966;2023-01-28T09:09:15;96736.28;;;-1.35;100.00
58385;BME280;44185;47.844;8.966;2023-01-28T09:11:42;96746.16;;;-1.46;100.00
58385;BME280;44185;47.844;8.966;2023-01-28T09:14:08;96741.00;;;-1.48;100.00
58385;BME280;44185;47.844;8.966;2023-01-28T09:16:33;96738.16;;;-1.40;100.00
58385;BME280;44185;47.844;8.966;2023-01-28T09:18:58;96743.00;;;-1.27;100.00
58385;BME280;44185;47.844;8.966;2023-01-28T09:21:24;96739.81;;;-1.07;100.00
58385;BME280;44185;47.844;8.966;2023-01-28T09:23:49;96735.78;;;-0.88;100.00
58385;BME280;44185;47.844;8.966;2023-01-28T09:26:15;96730.25;;;-0.79;100.00
58385;BME280;44185;47.844;8.966;2023-01-28T09:28:42;96739.16;;;-0.86;99.98
58385;BME280;44185;47.844;8.966;2023-01-28T09:31:10;96735.69;;;-0.85;100.00
58385;BME280;44185;47.844;8.966;2023-01-28T09:33:37;96741.22;;;-0.96;100.00
58385;BME280;44185;47.844;8.966;2023-01-28T09:36:04;96739.81;;;-0.80;100.00
58385;BME280;44185;47.844;8.966;2023-01-28T09:38:30;96746.59;;;-1.03;100.00
58385;BME280;44185;47.844;8.966;2023-01-28T09:40:56;96742.53;;;-0.83;100.00
58385;BME280;44185;47.844;8.966;2023-01-28T09:46:17;96743.97;;;-0.74;100.00
58385;BME280;44185;47.844;8.966;2023-01-28T09:48:45;96739.19;;;-0.59;100.00
58385;BME280;44185;47.844;8.966;2023-01-28T09:51:26;96743.19;;;-0.49;100.00
58385;BME280;44185;47.844;8.966;2023-01-28T09:53:54;96746.72;;;-0.51;99.41
58385;BME280;44185;47.844;8.966;2023-01-28T09:56:25;96745.94;;;-0.53;99.21
58385;BME280;44185;47.844;8.966;2023-01-28T09:58:53;96751.41;;;-0.63;98.78
58385;BME280;44185;47.844;8.966;2023-01-28T10:01:34;96746.44;;;-0.69;99.94
58385;BME280;44185;47.844;8.966;2023-01-28T10:04:04;96745.44;;;-0.65;100.00
58385;BME280;44185;47.844;8.966;2023-01-28T10:06:44;96743.47;;;-0.58;99.53
58385;BME280;44185;47.844;8.966;2023-01-28T10:09:24;96742.50;;;-0.56;99.95
58385;BME280;44185;47.844;8.966;2023-01-28T10:12:00;96740.22;;;-0.65;99.60
58385;BME280;44185;47.844;8.966;2023-01-28T10:14:38;96729.22;;;-0.73;99.29
58385;BME280;44185;47.844;8.966;2023-01-28T10:17:12;96731.72;;;-0.43;99.42
58385;BME280;44185;47.844;8.966;2023-01-28T10:19:43;96732.88;;;-0.26;98.00
58385;BME280;44185;47.844;8.966;2023-01-28T10:22:13;96725.03;;;0.01;97.68
58385;BME280;44185;47.844;8.966;2023-01-28T10:24:44;96724.97;;;0.03;96.39
58385;BME280;44185;47.844;8.966;2023-01-28T10:27:14;96731.22;;;0.22;95.91
58385;BME280;44185;47.844;8.966;2023-01-28T10:29:40;96724.81;;;0.07;95.80
58385;BME280;44185;47.844;8.966;2023-01-28T10:32:20;96738.00;;;0.27;95.51
58385;BME280;44185;47.844;8.966;2023-01-28T10:34:46;96733.75;;;0.48;94.69
58385;BME280;44185;47.844;8.966;2023-01-28T10:37:13;96737.19;;;0.73;93.19
58385;BME280;44185;47.844;8.966;2023-01-28T10:39:40;96741.03;;;1.09;92.95
58385;BME280;44185;47.844;8.966;2023-01-28T10:42:15;96730.97;;;0.99;90.50
58385;BME280;44185;47.844;8.966;2023-01-28T10:44:43;96741.41;;;0.77;91.68
58385;BME280;44185;47.844;8.966;2023-01-28T10:47:13;96738.72;;;0.79;92.35
58385;BME280;44185;47.844;8.966;2023-01-28T10:49:41;96740.84;;;0.91;91.84
58385;BME280;44185;47.844;8.966;2023-01-28T10:52:12;96740.75;;;0.70;92.52
58385;BME280;44185;47.844;8.966;2023-01-28T10:54:38;96745.13;;;0.70;92.91
58385;BME280;44185;47.844;8.966;2023-01-28T10:57:08;96746.63;;;0.53;93.78
58385;BME280;44185;47.844;8.966;2023-01-28T10:59:35;96738.53;;;0.37;94.75
58385;BME280;44185;47.844;8.966;2023-01-28T11:02:03;96736.53;;;0.43;94.96
58385;BME280;44185;47.844;8.966;2023-01-28T11:04:31;96741.53;;;0.50;96.25
58385;BME280;44185;47.844;8.966;2023-01-28T11:07:00;96732.56;;;0.57;94.42
58385;BME280;44185;47.844;8.966;2023-01-28T11:09:28;96745.66;;;0.31;95.73
58385;BME280;44185;47.844;8.966;2023-01-28T11:11:53;96733.13;;;0.41;96.28
58385;BME280;44185;47.844;8.966;2023-01-28T11:14:20;96737.66;;;0.36;95.84
58385;BME280;44185;47.844;8.966;2023-01-28T11:16:46;96737.38;;;0.20;97.54
58385;BME280;44185;47.844;8.966;2023-01-28T11:19:12;96738.78;;;0.05;99.14
58385;BME280;44185;47.844;8.966;2023-01-28T11:21:38;96722.00;;;-0.12;99.31
58385;BME280;44185;47.844;8.966;2023-01-28T11:24:13;96730.66;;;-0.12;99.91
58385;BME280;44185;47.844;8.966;2023-01-28T11:26:43;96732.78;;;0.03;100.00
58385;BME280;44185;47.844;8.966;2023-01-28T11:29:21;96732.06;;;-0.03;99.25
58385;BME280;44185;47.844;8.966;2023-01-28T11:31:47;96737.69;;;-0.14;99.65
58385;BME280;44185;47.844;8.966;2023-01-28T11:34:15;96729.28;;;-0.22;99.56
58385;BME280;44185;47.844;8.966;2023-01-28T11:36:49;96728.59;;;-0.27;99.49
58385;BME280;44185;47.844;8.966;2023-01-28T11:39:20;96726.63;;;-0.46;99.88
58385;BME280;44185;47.844;8.966;2023-01-28T11:41:46;96737.81;;;-0.44;99.75
58385;BME280;44185;47.844;8.966;2023-01-28T11:44:15;96742.00;;;-0.40;100.00
58385;BME280;44185;47.844;8.966;2023-01-28T11:46:52;96733.72;;;-0.51;99.20
58385;BME280;44185;47.844;8.966;2023-01-28T11:49:31;96737.47;;;-0.60;99.97
58385;BME280;44185;47.844;8.966;2023-01-28T11:52:03;96723.84;;;-0.41;100.00
58385;BME280;44185;47.844;8.966;2023-01-28T11:54:40;96724.66;;;-0.39;99.79
58385;BME280;44185;47.844;8.966;2023-01-28T11:57:18;96724.19;;;-0.51;100.00
58385;BME280;44185;47.844;8.966;2023-01-28T11:59:55;96724.13;;;-0.49;100.00
58385;BME280;44185;47.844;8.966;2023-01-28T12:02:37;96732.06;;;-0.54;100.00
58385;BME280;44185;47.844;8.966;2023-01-28T12:05:18;96725.34;;;-0.34;99.79
58385;BME280;44185;47.844;8.966;2023-01-28T12:07:51;96721.66;;;-0.27;99.31
58385;BME280;44185;47.844;8.966;2023-01-28T12:10:26;96720.09;;;-0.32;97.78
58385;BME280;44185;47.844;8.966;2023-01-28T12:13:07;96720.31;;;-0.39;97.89
58385;BME280;44185;47.844;8.966;2023-01-28T12:18:59;96726.03;;;-0.29;96.88
58385;BME280;44185;47.844;8.966;2023-01-28T12:21:35;96730.59;;;-0.36;96.89
58385;BME280;44185;47.844;8.966;2023-01-28T12:24:13;96727.13;;;-0.35;97.59
58385;BME280;44185;47.844;8.966;2023-01-28T12:26:49;96734.78;;;-0.31;98.26
58385;BME280;44185;47.844;8.966;2023-01-28T12:29:24;96720.00;;;-0.29;98.26
58385;BME280;44185;47.844;8.966;2023-01-28T12:32:11;96720.78;;;-0.27;97.27
58385;BME280;44185;47.844;8.966;2023-01-28T12:37:47;96728.63;;;-0.29;97.68
58385;BME280;44185;47.844;8.966;2023-01-28T12:40:32;96726.09;;;-0.30;97.78
58385;BME280;44185;47.844;8.966;2023-01-28T12:43:11;96728.06;;;-0.37;98.71
58385;BME280;44185;47.844;8.966;2023-01-28T12:45:44;96733.47;;;-0.43;98.77
58385;BME280;44185;47.844;8.966;2023-01-28T12:48:13;96740.06;;;-0.33;98.89
58385;BME280;44185;47.844;8.966;2023-01-28T12:50:43;96735.75;;;-0.34;98.89
58385;BME280;44185;47.844;8.966;2023-01-28T12:53:19;96722.03;;;-0.39;98.26
58385;BME280;44185;47.844;8.966;2023-01-28T12:55:52;96726.38;;;-0.40;98.83
58385;BME280;44185;47.844;8.966;2023-01-28T12:58:32;96718.56;;;-0.38;97.84
58385;BME280;44185;47.844;8.966;2023-01-28T13:01:05;96721.00;;;-0.34;97.50
58385;BME280;44185;47.844;8.966;2023-01-28T13:03:35;96727.84;;;-0.31;97.66
58385;BME280;44185;47.844;8.966;2023-01-28T13:06:09;96723.41;;;-0.27;97.68